sensor_id;sensor_type;location;lat;lon;timestamp;temperature;humidity
17968;DHT22;9109;48.050;11.696;2023-02-26T04:48:21;-2.10;99.90
17968;DHT22;9109;48.050;11.696;2023-02-26T04:51:23;-2.20;99.90
17968;DHT22;9109;48.050;11.696;2023-02-26T04:54:26;-2.10;99.90
17968;DHT22;9109;48.050;11.696;2023-02-26T04:57:27;-2.10;99.90
17968;DHT22;9109;48.050;11.696;2023-02-26T05:00:29;-2.10;99.90
17968;DHT22;9109;48.050;11.696;2023-02-26T05:03:33;-2.10;99.90
17968;DHT22;9109;48.050;11.696;2023-02-26T05:06:34;-2.20;99.90
17968;DHT22;9109;48.050;11.696;2023-02-26T05:09:36;-2.20;99.90
17968;DHT22;9109;48.050;11.696;2023-02-26T05:12:38;-2.10;99.90
17968;DHT22;9109;48.050;11.696;2023-02-26T05:15:40;-2.10;99.90
17968;DHT22;9109;48.050;11.696;2023-02-26T05:18:43;-2.10;99.90
17968;DHT22;9109;48.050;11.696;2023-02-26T05:21:45;-2.00;99.90
17968;DHT22;9109;48.050;11.696;2023-02-26T05:24:48;-1.80;99.90
17968;DHT22;9109;48.050;11.696;2023-02-26T05:27:50;-1.80;99.90
17968;DHT22;9109;48.050;11.696;2023-02-26T05:30:52;-1.80;99.90
17968;DHT22;9109;48.050;11.696;2023-02-26T05:33:55;-1.80;99.90
17968;DHT22;9109;48.050;11.696;2023-02-26T05:36:57;-1.90;99.90
17968;DHT22;9109;48.050;11.696;2023-02-26T05:39:59;-1.80;99.90
17968;DHT22;9109;48.050;11.696;2023-02-26T05:43:01;-1.80;99.90
17968;DHT22;9109;48.050;11.696;2023-02-26T05:46:03;-2.00;99.90
17968;DHT22;9109;48.050;11.696;2023-02-26T05:49:06;-2.10;99.90
17968;DHT22;9109;48.050;11.696;2023-02-26T05:52:08;-2.10;99.90
17968;DHT22;9109;48.050;11.696;2023-02-26T05:55:11;-2.20;99.90
17968;DHT22;9109;48.050;11.696;2023-02-26T05:58:13;-2.30;99.90
17968;DHT22;9109;48.050;11.696;2023-02-26T06:01:15;-2.20;99.90
17968;DHT22;9109;48.050;11.696;2023-02-26T06:04:18;-2.00;99.90
17968;DHT22;9109;48.050;11.696;2023-02-26T06:07:20;-1.80;99.90
17968;DHT22;9109;48.050;11.696;2023-02-26T06:10:22;-1.70;99.90
17968;DHT22;9109;48.050;11.696;2023-02-26T06:13:24;-1.50;99.90
17968;DHT22;9109;48.050;11.696;2023-02-26T06:16:26;-1.40;99.90
17968;DHT22;9109;48.050;11.696;2023-02-26T06:19:29;-1.40;99.90
17968;DHT22;9109;48.050;11.696;2023-02-26T06:22:31;-1.30;99.90
17968;DHT22;9109;48.050;11.696;2023-02-26T06:25:33;-1.20;99.90
17968;DHT22;9109;48.050;11.696;2023-02-26T06:28:35;-1.10;99.90
17968;DHT22;9109;48.050;11.696;2023-02-26T06:31:37;-1.10;99.90
17968;DHT22;9109;48.050;11.696;2023-02-26T06:34:40;-1.20;99.90
17968;DHT22;9109;48.050;11.696;2023-02-26T06:37:42;-1.20;99.90
17968;DHT22;9109;48.050;11.696;2023-02-26T06:40:45;-1.40;99.90
17968;DHT22;9109;48.050;11.696;2023-02-26T06:43:47;-1.60;99.90
17968;DHT22;9109;48.050;11.696;2023-02-26T06:47:01;-1.80;99.90
17968;DHT22;9109;48.050;11.696;2023-02-26T06:50:06;-1.80;99.90
17968;DHT22;9109;48.050;11.696;2023-02-26T06:53:09;-1.70;99.90
17968;DHT22;9109;48.050;11.696;2023-02-26T06:56:10;-1.60;99.90
17968;DHT22;9109;48.050;11.696;2023-02-26T06:59:13;-1.60;99.90
17968;DHT22;9109;48.050;11.696;2023-02-26T07:02:16;-1.50;99.90
17968;DHT22;9109;48.050;11.696;2023-02-26T07:05:20;-1.40;99.90
17968;DHT22;9109;48.050;11.696;2023-02-26T07:08:22;-1.30;99.90
17968;DHT22;9109;48.050;11.696;2023-02-26T07:11:24;-1.30;99.90
17968;DHT22;9109;48.050;11.696;2023-02-26T07:14:27;-1.20;99.90
17968;DHT22;9109;48.050;11.696;2023-02-26T07:17:29;-1.00;99.90
17968;DHT22;9109;48.050;11.696;2023-02-26T07:20:35;-1.20;99.90
17968;DHT22;9109;48.050;11.696;2023-02-26T07:23:37;-1.20;99.90
17968;DHT22;9109;48.050;11.696;2023-02-26T07:26:39;-1.30;99.90
17968;DHT22;9109;48.050;11.696;2023-02-26T07:29:43;-1.20;99.90
17968;DHT22;9109;48.050;11.696;2023-02-26T07:32:45;-1.10;99.90
17968;DHT22;9109;48.050;11.696;2023-02-26T07:35:48;-1.10;99.90
17968;DHT22;9109;48.050;11.696;2023-02-26T07:38:50;-1.20;99.90
17968;DHT22;9109;48.050;11.696;2023-02-26T07:42:04;-1.30;99.90
17968;DHT22;9109;48.050;11.696;2023-02-26T07:45:07;-1.30;99.90
17968;DHT22;9109;48.050;11.696;2023-02-26T07:48:09;-1.40;99.90
17968;DHT22;9109;48.050;11.696;2023-02-26T07:51:12;-1.40;99.90
17968;DHT22;9109;48.050;11.696;2023-02-26T07:54:14;-1.40;99.90
17968;DHT22;9109;48.050;11.696;2023-02-26T07:57:16;-1.90;99.90
17968;DHT22;9109;48.050;11.696;2023-02-26T08:00:18;-2.10;99.90
17968;DHT22;9109;48.050;11.696;2023-02-26T08:03:21;-1.80;99.90
17968;DHT22;9109;48.050;11.696;2023-02-26T08:06:24;-1.70;99.90
17968;DHT22;9109;48.050;11.696;2023-02-26T08:09:26;-1.70;99.90
17968;DHT22;9109;48.050;11.696;2023-02-26T08:12:28;-1.70;99.90
17968;DHT22;9109;48.050;11.696;2023-02-26T08:15:30;-1.70;99.90
17968;DHT22;9109;48.050;11.696;2023-02-26T08:18:31;-1.90;99.90
17968;DHT22;9109;48.050;11.696;2023-02-26T08:21:35;-1.80;99.90
17968;DHT22;9109;48.050;11.696;2023-02-26T08:24:37;-1.70;99.90
17968;DHT22;9109;48.050;11.696;2023-02-26T08:27:39;-1.40;99.90
17968;DHT22;9109;48.050;11.696;2023-02-26T08:30:40;-1.60;99.90
17968;DHT22;9109;48.050;11.696;2023-02-26T08:33:43;-1.90;99.90
17968;DHT22;9109;48.050;11.696;2023-02-26T08:36:46;-2.00;99.90
17968;DHT22;9109;48.050;11.696;2023-02-26T08:39:49;-1.90;99.90
17968;DHT22;9109;48.050;11.696;2023-02-26T08:42:51;-2.00;99.90
17968;DHT22;9109;48.050;11.696;2023-02-26T08:45:59;-2.10;99.90
17968;DHT22;9109;48.050;11.696;2023-02-26T08:49:01;-1.80;99.90
17968;DHT22;9109;48.050;11.696;2023-02-26T08:52:05;-1.40;99.90
17968;DHT22;9109;48.050;11.696;2023-02-26T08:55:07;-1.30;99.90
17968;DHT22;9109;48.050;11.696;2023-02-26T08:58:09;-1.10;99.90
17968;DHT22;9109;48.050;11.696;2023-02-26T09:01:11;-1.10;99.90
17968;DHT22;9109;48.050;11.696;2023-02-26T09:04:13;-1.00;99.90
17968;DHT22;9109;48.050;11.696;2023-02-26T09:07:16;-0.90;99.90
17968;DHT22;9109;48.050;11.696;2023-02-26T09:10:18;-1.10;99.90
17968;DHT22;9109;48.050;11.696;2023-02-26T09:13:20;-1.10;99.90
17968;DHT22;9109;48.050;11.696;2023-02-26T09:16:22;-1.10;99.90
17968;DHT22;9109;48.050;11.696;2023-02-26T09:19:24;-1.20;99.90
17968;DHT22;9109;48.050;11.696;2023-02-26T09:22:28;-1.20;99.90
17968;DHT22;9109;48.050;11.696;2023-02-26T09:25:39;-1.00;99.90
17968;DHT22;9109;48.050;11.696;2023-02-26T09:28:41;-0.80;99.90
17968;DHT22;9109;48.050;11.696;2023-02-26T09:31:43;-0.90;99.90
17968;DHT22;9109;48.050;11.696;2023-02-26T09:34:45;-1.10;99.90
17968;DHT22;9109;48.050;11.696;2023-02-26T09:37:48;-1.30;99.90
17968;DHT22;9109;48.050;11.696;2023-02-26T09:40:55;-1.50;99.90
17968;DHT22;9109;48.050;11.696;2023-02-26T09:44:14;-1.60;99.90
17968;DHT22;9109;48.050;11.696;2023-02-26T09:47:20;-1.60;99.90
17968;DHT22;9109;48.050;11.696;2023-02-26T09:50:27;-1.20;99.90
17968;DHT22;9109;48.050;11.696;2023-02-26T09:53:37;-0.80;99.90
17968;DHT22;9109;48.050;11.696;2023-02-26T09:56:41;-0.60;99.90
17968;DHT22;9109;48.050;11.696;2023-02-26T09:59:44;-0.60;99.90
17968;DHT22;9109;48.050;11.696;2023-02-26T10:02:54;-0.60;99.90
17968;DHT22;9109;48.050;11.696;2023-02-26T10:06:17;-0.70;99.90
17968;DHT22;9109;48.050;11.696;2023-02-26T10:09:32;-0.70;99.90
17968;DHT22;9109;48.050;11.696;2023-02-26T10:12:37;-0.70;99.90
17968;DHT22;9109;48.050;11.696;2023-02-26T10:15:41;-0.60;99.90
17968;DHT22;9109;48.050;11.696;2023-02-26T10:18:48;-0.40;99.90
17968;DHT22;9109;48.050;11.696;2023-02-26T10:21:56;-0.40;99.90
17968;DHT22;9109;48.050;11.696;2023-02-26T10:25:04;-0.40;99.90
17968;DHT22;9109;48.050;11.696;2023-02-26T10:28:23;-0.40;99.90
17968;DHT22;9109;48.050;11.696;2023-02-26T10:31:34;-0.70;99.90
17968;DHT22;9109;48.050;11.696;2023-02-26T10:34:42;-0.60;99.90
17968;DHT22;9109;48.050;11.696;2023-02-26T10:37:50;-0.30;99.90
17968;DHT22;9109;48.050;11.696;2023-02-26T10:40:58;-0.10;99.90
17968;DHT22;9109;48.050;11.696;2023-02-26T10:44:08;0.00;99.90
17968;DHT22;9109;48.050;11.696;2023-02-26T10:47:18;-0.20;99.90
17968;DHT22;9109;48.050;11.696;2023-02-26T10:50:23;-0.30;99.90
17968;DHT22;9109;48.050;11.696;2023-02-26T10:53:29;-0.30;99.90
17968;DHT22;9109;48.050;11.696;2023-02-26T10:56:33;-0.30;99.90
17968;DHT22;9109;48.050;11.696;2023-02-26T10:59:35;-0.20;99.90
17968;DHT22;9109;48.050;11.696;2023-02-26T11:02:39;0.00;99.90
17968;DHT22;9109;48.050;11.696;2023-02-26T11:05:42;-0.20;99.90
17968;DHT22;9109;48.050;11.696;2023-02-26T11:08:46;-0.20;99.90
17968;DHT22;9109;48.050;11.696;2023-02-26T11:11:54;-0.50;99.90
17968;DHT22;9109;48.050;11.696;2023-02-26T11:14:56;-0.60;99.90
17968;DHT22;9109;48.050;11.696;2023-02-26T11:17:59;-0.60;99.90
17968;DHT22;9109;48.050;11.696;2023-02-26T11:21:04;-0.50;99.90
17968;DHT22;9109;48.050;11.696;2023-02-26T11:24:10;-0.40;99.90
17968;DHT22;9109;48.050;11.696;2023-02-26T11:27:17;-0.40;99.90
17968;DHT22;9109;48.050;11.696;2023-02-26T11:30:20;-0.30;99.90
17968;DHT22;9109;48.050;11.696;2023-02-26T11:33:26;-0.20;99.90
17968;DHT22;9109;48.050;11.696;2023-02-26T11:36:31;-0.30;99.90
17968;DHT22;9109;48.050;11.696;2023-02-26T11:39:35;-0.30;99.90
17968;DHT22;9109;48.050;11.696;2023-02-26T11:42:43;-0.10;99.90
17968;DHT22;9109;48.050;11.696;2023-02-26T11:45:51;0.20;99.90
17968;DHT22;9109;48.050;11.696;2023-02-26T11:48:56;0.50;99.90
17968;DHT22;9109;48.050;11.696;2023-02-26T11:52:14;0.80;99.90
17968;DHT22;9109;48.050;11.696;2023-02-26T11:55:19;1.00;99.90
17968;DHT22;9109;48.050;11.696;2023-02-26T11:58:23;0.80;99.90
17968;DHT22;9109;48.050;11.696;2023-02-26T12:01:27;0.70;99.90
17968;DHT22;9109;48.050;11.696;2023-02-26T12:04:30;0.50;99.90
17968;DHT22;9109;48.050;11.696;2023-02-26T12:07:32;0.10;99.90
17968;DHT22;9109;48.050;11.696;2023-02-26T12:10:42;-0.50;99.90
17968;DHT22;9109;48.050;11.696;2023-02-26T12:14:00;-0.50;99.90
17968;DHT22;9109;48.050;11.696;2023-02-26T12:17:17;-0.30;99.90
17968;DHT22;9109;48.050;11.696;2023-02-26T12:20:26;-0.10;99.90
17968;DHT22;9109;48.050;11.696;2023-02-26T12:23:52;0.30;99.90
17968;DHT22;9109;48.050;11.696;2023-02-26T12:27:03;0.40;99.90
17968;DHT22;9109;48.050;11.696;2023-02-26T12:30:19;0.50;99.90
17968;DHT22;9109;48.050;11.696;2023-02-26T12:33:32;0.40;99.90
17968;DHT22;9109;48.050;11.696;2023-02-26T12:36:49;0.60;99.90
17968;DHT22;9109;48.050;11.696;2023-02-26T12:40:04;0.60;99.90
17968;DHT22;9109;48.050;11.696;2023-02-26T12:43:10;0.20;99.90
17968;DHT22;9109;48.050;11.696;2023-02-26T12:46:31;-0.10;99.90
17968;DHT22;9109;48.050;11.696;2023-02-26T12:50:01;-0.20;99.90
17968;DHT22;9109;48.050;11.696;2023-02-26T12:53:24;-0.10;99.90
17968;DHT22;9109;48.050;11.696;2023-02-26T12:56:53;0.10;99.90
17968;DHT22;9109;48.050;11.696;2023-02-26T13:00:12;0.30;99.90
17968;DHT22;9109;48.050;11.696;2023-02-26T13:03:38;0.20;99.90
17968;DHT22;9109;48.050;11.696;2023-02-26T13:06:51;0.40;99.90
17968;DHT22;9109;48.050;11.696;2023-02-26T13:10:00;0.40;99.90
17968;DHT22;9109;48.050;11.696;2023-02-26T13:13:16;0.60;99.90
17968;DHT22;9109;48.050;11.696;2023-02-26T13:16:29;0.70;99.90
17968;DHT22;9109;48.050;11.696;2023-02-26T13:19:41;0.80;99.90
17968;DHT22;9109;48.050;11.696;2023-02-26T13:22:47;0.80;99.90
17968;DHT22;9109;48.050;11.696;2023-02-26T13:25:53;0.70;99.90
17968;DHT22;9109;48.050;11.696;2023-02-26T13:28:59;1.00;99.90
17968;DHT22;9109;48.050;11.696;2023-02-26T13:32:05;1.30;99.90
17968;DHT22;9109;48.050;11.696;2023-02-26T13:35:20;1.20;99.90
17968;DHT22;9109;48.050;11.696;2023-02-26T13:38:30;1.20;99.90
17968;DHT22;9109;48.050;11.696;2023-02-26T13:41:41;1.20;99.90
17968;DHT22;9109;48.050;11.696;2023-02-26T13:44:53;1.20;99.90
17968;DHT22;9109;48.050;11.696;2023-02-26T13:48:03;1.10;99.90
17968;DHT22;9109;48.050;11.696;2023-02-26T13:51:12;1.10;99.90
17968;DHT22;9109;48.050;11.696;2023-02-26T13:54:33;1.10;99.90
17968;DHT22;9109;48.050;11.696;2023-02-26T13:57:47;1.40;99.90
17968;DHT22;9109;48.050;11.696;2023-02-26T14:00:58;1.40;99.90
17968;DHT22;9109;48.050;11.696;2023-02-26T14:04:23;0.90;99.90
17968;DHT22;9109;48.050;11.696;2023-02-26T14:07:48;0.30;99.90
17968;DHT22;9109;48.050;11.696;2023-02-26T14:10:56;0.10;99.90
17968;DHT22;9109;48.050;11.696;2023-02-26T14:14:10;0.10;99.90
17968;DHT22;9109;48.050;11.696;2023-02-26T14:17:28;0.00;99.90
17968;DHT22;9109;48.050;11.696;2023-02-26T14:20:33;-0.20;99.90
17968;DHT22;9109;48.050;11.696;2023-02-26T14:23:37;-0.30;99.90
17968;DHT22;9109;48.050;11.696;2023-02-26T14:26:44;-0.20;99.90
17968;DHT22;9109;48.050;11.696;2023-02-26T14:29:58;-0.10;99.90
17968;DHT22;9109;48.050;11.696;2023-02-26T14:33:07;0.00;99.90
17968;DHT22;9109;48.050;11.696;2023-02-26T14:36:16;0.20;99.90
17968;DHT22;9109;48.050;11.696;2023-02-26T14:39:30;0.60;99.90
17968;DHT22;9109;48.050;11.696;2023-02-26T14:42:35;0.80;99.90
17968;DHT22;9109;48.050;11.696;2023-02-26T14:45:40;0.80;99.90
17968;DHT22;9109;48.050;11.696;2023-02-26T14:48:45;0.30;99.90
17968;DHT22;9109;48.050;11.696;2023-02-26T14:51:59;-0.40;99.90
17968;DHT22;9109;48.050;11.696;2023-02-26T14:55:22;-0.80;99.90
17968;DHT22;9109;48.050;11.696;2023-02-26T14:58:45;-0.90;99.90
17968;DHT22;9109;48.050;11.696;2023-02-26T15:01:59;-1.10;99.90
17968;DHT22;9109;48.050;11.696;2023-02-26T15:05:40;-1.00;99.90
17968;DHT22;9109;48.050;11.696;2023-02-26T15:08:55;-1.00;99.90
17968;DHT22;9109;48.050;11.696;2023-02-26T15:12:19;-0.90;99.90
17968;DHT22;9109;48.050;11.696;2023-02-26T15:15:32;-0.80;99.90
17968;DHT22;9109;48.050;11.696;2023-02-26T15:19:05;-0.50;99.90
17968;DHT22;9109;48.050;11.696;2023-02-26T15:22:26;-0.40;99.90
17968;DHT22;9109;48.050;11.696;2023-02-26T15:25:34;-0.40;99.90
17968;DHT22;9109;48.050;11.696;2023-02-26T15:28:39;-0.30;99.90
17968;DHT22;9109;48.050;11.696;2023-02-26T15:31:46;0.00;99.90
17968;DHT22;9109;48.050;11.696;2023-02-26T15:34:57;0.40;99.90
17968;DHT22;9109;48.050;11.696;2023-02-26T15:38:01;0.40;99.90
17968;DHT22;9109;48.050;11.696;2023-02-26T15:41:04;0.40;99.90
17968;DHT22;9109;48.050;11.696;2023-02-26T15:44:08;0.50;99.90
17968;DHT22;9109;48.050;11.696;2023-02-26T15:47:14;0.50;99.90
17968;DHT22;9109;48.050;11.696;2023-02-26T15:50:16;0.50;99.90
17968;DHT22;9109;48.050;11.696;2023-02-26T15:53:26;0.60;99.90
17968;DHT22;9109;48.050;11.696;2023-02-26T15:56:31;0.70;99.90
17968;DHT22;9109;48.050;11.696;2023-02-26T15:59:38;0.60;99.90
17968;DHT22;9109;48.050;11.696;2023-02-26T16:02:42;0.60;99.90
17968;DHT22;9109;48.050;11.696;2023-02-26T16:05:45;0.80;99.90
17968;DHT22;9109;48.050;11.696;2023-02-26T16:08:49;0.90;99.90
17968;DHT22;9109;48.050;11.696;2023-02-26T16:11:53;0.90;99.90
17968;DHT22;9109;48.050;11.696;2023-02-26T16:15:04;1.00;99.90
17968;DHT22;9109;48.050;11.696;2023-02-26T16:18:13;0.90;99.90
17968;DHT22;9109;48.050;11.696;2023-02-26T16:21:22;0.90;99.90
17968;DHT22;9109;48.050;11.696;2023-02-26T16:24:27;0.90;99.90
17968;DHT22;9109;48.050;11.696;2023-02-26T16:27:31;1.10;99.90
17968;DHT22;9109;48.050;11.696;2023-02-26T16:30:36;1.10;99.90
17968;DHT22;9109;48.050;11.696;2023-02-26T16:33:40;0.90;99.90
17968;DHT22;9109;48.050;11.696;2023-02-26T16:36:53;0.90;99.90
17968;DHT22;9109;48.050;11.696;2023-02-26T16:40:03;0.90;99.90
17968;DHT22;9109;48.050;11.696;2023-02-26T16:43:28;0.80;99.90
17968;DHT22;9109;48.050;11.696;2023-02-26T16:46:40;0.60;99.90
17968;DHT22;9109;48.050;11.696;2023-02-26T16:49:43;0.50;99.90
17968;DHT22;9109;48.050;11.696;2023-02-26T16:52:49;0.70;99.90
17968;DHT22;9109;48.050;11.696;2023-02-26T16:55:54;0.50;99.90
17968;DHT22;9109;48.050;11.696;2023-02-26T16:59:03;0.40;99.90
17968;DHT22;9109;48.050;11.696;2023-02-26T17:02:12;0.20;99.90
17968;DHT22;9109;48.050;11.696;2023-02-26T17:05:21;0.10;99.90
17968;DHT22;9109;48.050;11.696;2023-02-26T17:08:26;0.10;99.90
17968;DHT22;9109;48.050;11.696;2023-02-26T17:11:31;0.10;99.90
17968;DHT22;9109;48.050;11.696;2023-02-26T17:14:37;0.20;99.90
17968;DHT22;9109;48.050;11.696;2023-02-26T17:17:41;0.30;99.90
17968;DHT22;9109;48.050;11.696;2023-02-26T17:20:43;0.30;99.90
17968;DHT22;9109;48.050;11.696;2023-02-26T17:23:46;0.20;99.90
17968;DHT22;9109;48.050;11.696;2023-02-26T17:26:48;0.30;99.90
17968;DHT22;9109;48.050;11.696;2023-02-26T17:29:50;0.50;99.90
17968;DHT22;9109;48.050;11.696;2023-02-26T17:32:53;0.40;99.90
17968;DHT22;9109;48.050;11.696;2023-02-26T17:35:58;0.50;99.90
17968;DHT22;9109;48.050;11.696;2023-02-26T17:39:00;0.40;99.90
17968;DHT22;9109;48.050;11.696;2023-02-26T17:42:02;0.20;99.90
17968;DHT22;9109;48.050;11.696;2023-02-26T17:45:04;0.20;99.90
17968;DHT22;9109;48.050;11.696;2023-02-26T17:48:09;0.40;99.90
17968;DHT22;9109;48.050;11.696;2023-02-26T17:51:12;0.40;99.90
17968;DHT22;9109;48.050;11.696;2023-02-26T17:54:16;0.20;99.90
17968;DHT22;9109;48.050;11.696;2023-02-26T17:57:19;0.10;99.90
17968;DHT22;9109;48.050;11.696;2023-02-26T18:00:22;0.10;99.90
17968;DHT22;9109;48.050;11.696;2023-02-26T18:03:26;0.00;99.90
17968;DHT22;9109;48.050;11.696;2023-02-26T18:06:30;-0.10;99.90
17968;DHT22;9109;48.050;11.696;2023-02-26T18:09:33;0.00;99.90
17968;DHT22;9109;48.050;11.696;2023-02-26T18:12:35;-0.10;99.90
17968;DHT22;9109;48.050;11.696;2023-02-26T18:15:37;-0.30;99.90
17968;DHT22;9109;48.050;11.696;2023-02-26T18:18:41;-0.40;99.90
17968;DHT22;9109;48.050;11.696;2023-02-26T18:21:43;-0.60;99.90
17968;DHT22;9109;48.050;11.696;2023-02-26T18:24:45;-0.60;99.90
17968;DHT22;9109;48.050;11.696;2023-02-26T18:27:51;-0.60;99.90
17968;DHT22;9109;48.050;11.696;2023-02-26T18:30:55;-0.50;99.90
17968;DHT22;9109;48.050;11.696;2023-02-26T18:33:59;-0.50;99.90
17968;DHT22;9109;48.050;11.696;2023-02-26T18:37:01;-0.40;99.90
17968;DHT22;9109;48.050;11.696;2023-02-26T18:40:05;-0.40;99.90
17968;DHT22;9109;48.050;11.696;2023-02-26T18:43:08;-0.40;99.90
17968;DHT22;9109;48.050;11.696;2023-02-26T18:46:12;-0.40;99.90
17968;DHT22;9109;48.050;11.696;2023-02-26T18:49:18;-0.50;99.90
17968;DHT22;9109;48.050;11.696;2023-02-26T18:52:20;-0.50;99.90
17968;DHT22;9109;48.050;11.696;2023-02-26T18:55:22;-0.60;99.90
17968;DHT22;9109;48.050;11.696;2023-02-26T18:58:24;-0.50;99.90
17968;DHT22;9109;48.050;11.696;2023-02-26T19:01:26;-0.40;99.90
17968;DHT22;9109;48.050;11.696;2023-02-26T19:04:30;-0.50;99.90
17968;DHT22;9109;48.050;11.696;2023-02-26T19:07:32;-0.50;99.90
17968;DHT22;9109;48.050;11.696;2023-02-26T19:10:34;-0.70;99.90
17968;DHT22;9109;48.050;11.696;2023-02-26T19:13:36;-0.70;99.90
17968;DHT22;9109;48.050;11.696;2023-02-26T19:16:38;-0.60;99.90
17968;DHT22;9109;48.050;11.696;2023-02-26T19:19:43;-0.50;99.90
17968;DHT22;9109;48.050;11.696;2023-02-26T19:22:45;-0.60;99.90
17968;DHT22;9109;48.050;11.696;2023-02-26T19:25:49;-0.70;99.90
17968;DHT22;9109;48.050;11.696;2023-02-26T19:28:51;-0.70;99.90
17968;DHT22;9109;48.050;11.696;2023-02-26T19:31:53;-0.90;99.90
17968;DHT22;9109;48.050;11.696;2023-02-26T19:34:57;-0.80;99.90
17968;DHT22;9109;48.050;11.696;2023-02-26T19:37:59;-0.90;99.90
17968;DHT22;9109;48.050;11.696;2023-02-26T19:41:02;-1.10;99.90
17968;DHT22;9109;48.050;11.696;2023-02-26T19:44:04;-1.10;99.90
17968;DHT22;9109;48.050;11.696;2023-02-26T19:47:06;-1.00;99.90
17968;DHT22;9109;48.050;11.696;2023-02-26T19:50:12;-0.90;99.90
17968;DHT22;9109;48.050;11.696;2023-02-26T19:53:14;-0.80;99.90
17968;DHT22;9109;48.050;11.696;2023-02-26T19:56:16;-0.90;99.90
17968;DHT22;9109;48.050;11.696;2023-02-26T19:59:18;-0.90;99.90
17968;DHT22;9109;48.050;11.696;2023-02-26T20:02:20;-0.80;99.90
17968;DHT22;9109;48.050;11.696;2023-02-26T20:05:23;-0.70;99.90
17968;DHT22;9109;48.050;11.696;2023-02-26T20:08:26;-0.70;99.90
17968;DHT22;9109;48.050;11.696;2023-02-26T20:11:29;-0.70;99.90
17968;DHT22;9109;48.050;11.696;2023-02-26T20:14:31;-0.70;99.90
17968;DHT22;9109;48.050;11.696;2023-02-26T20:17:33;-0.80;99.90
17968;DHT22;9109;48.050;11.696;2023-02-26T20:20:36;-0.80;99.90
17968;DHT22;9109;48.050;11.696;2023-02-26T20:23:39;-0.70;99.90
17968;DHT22;9109;48.050;11.696;2023-02-26T20:26:42;-1.00;99.90
17968;DHT22;9109;48.050;11.696;2023-02-26T20:29:45;-1.00;99.90
17968;DHT22;9109;48.050;11.696;2023-02-26T20:32:47;-1.10;99.90
17968;DHT22;9109;48.050;11.696;2023-02-26T20:35:52;-1.00;99.90
17968;DHT22;9109;48.050;11.696;2023-02-26T20:38:54;-1.00;99.90
17968;DHT22;9109;48.050;11.696;2023-02-26T20:41:56;-1.00;99.90
17968;DHT22;9109;48.050;11.696;2023-02-26T20:44:59;-0.90;99.90
17968;DHT22;9109;48.050;11.696;2023-02-26T20:48:01;-1.00;99.90
17968;DHT22;9109;48.050;11.696;2023-02-26T20:51:05;-1.00;99.90
17968;DHT22;9109;48.050;11.696;2023-02-26T20:54:11;-0.90;99.90
17968;DHT22;9109;48.050;11.696;2023-02-26T20:57:14;-0.90;99.90
17968;DHT22;9109;48.050;11.696;2023-02-26T21:00:17;-1.00;99.90
17968;DHT22;9109;48.050;11.696;2023-02-26T21:03:19;-1.10;99.90
17968;DHT22;9109;48.050;11.696;2023-02-26T21:06:22;-1.10;99.90
17968;DHT22;9109;48.050;11.696;2023-02-26T21:09:24;-1.20;99.90
17968;DHT22;9109;48.050;11.696;2023-02-26T21:12:26;-1.30;99.90
17968;DHT22;9109;48.050;11.696;2023-02-26T21:15:29;-1.30;99.90
17968;DHT22;9109;48.050;11.696;2023-02-26T21:18:31;-1.30;99.90
17968;DHT22;9109;48.050;11.696;2023-02-26T21:21:35;-1.40;99.90
17968;DHT22;9109;48.050;11.696;2023-02-26T21:24:37;-1.40;99.90
17968;DHT22;9109;48.050;11.696;2023-02-26T21:27:39;-1.10;99.90
17968;DHT22;9109;48.050;11.696;2023-02-26T21:30:48;-1.10;99.90
17968;DHT22;9109;48.050;11.696;2023-02-26T21:33:55;-1.10;99.90
17968;DHT22;9109;48.050;11.696;2023-02-26T21:37:13;-1.20;99.90
17968;DHT22;9109;48.050;11.696;2023-02-26T21:40:15;-1.10;99.90
17968;DHT22;9109;48.050;11.696;2023-02-26T21:43:19;-1.10;99.90
17968;DHT22;9109;48.050;11.696;2023-02-26T21:46:27;-1.10;99.90
17968;DHT22;9109;48.050;11.696;2023-02-26T21:49:32;-1.10;99.90
17968;DHT22;9109;48.050;11.696;2023-02-26T21:52:39;-1.10;99.90
17968;DHT22;9109;48.050;11.696;2023-02-26T21:55:41;-1.10;99.90
17968;DHT22;9109;48.050;11.696;2023-02-26T21:58:43;-1.10;99.90
17968;DHT22;9109;48.050;11.696;2023-02-26T22:01:45;-1.20;99.90
17968;DHT22;9109;48.050;11.696;2023-02-26T22:04:47;-1.20;99.90
17968;DHT22;9109;48.050;11.696;2023-02-26T22:07:50;-1.10;99.90
17968;DHT22;9109;48.050;11.696;2023-02-26T22:10:52;-1.10;99.90
17968;DHT22;9109;48.050;11.696;2023-02-26T22:13:54;-1.20;99.90
17968;DHT22;9109;48.050;11.696;2023-02-26T22:16:56;-1.30;99.90
17968;DHT22;9109;48.050;11.696;2023-02-26T22:19:58;-1.20;99.90
17968;DHT22;9109;48.050;11.696;2023-02-26T22:23:01;-1.10;99.90
17968;DHT22;9109;48.050;11.696;2023-02-26T22:26:05;-1.10;99.90
17968;DHT22;9109;48.050;11.696;2023-02-26T22:29:07;-1.10;99.90
17968;DHT22;9109;48.050;11.696;2023-02-26T22:32:09;-1.10;99.90
17968;DHT22;9109;48.050;11.696;2023-02-26T22:35:11;-1.10;99.90
17968;DHT22;9109;48.050;11.696;2023-02-26T22:38:15;-1.10;99.90
17968;DHT22;9109;48.050;11.696;2023-02-26T22:41:17;-1.10;99.90
17968;DHT22;9109;48.050;11.696;2023-02-26T22:44:19;-1.10;99.90
17968;DHT22;9109;48.050;11.696;2023-02-26T22:47:21;-1.20;99.90
17968;DHT22;9109;48.050;11.696;2023-02-26T22:50:23;-1.20;99.90
17968;DHT22;9109;48.050;11.696;2023-02-26T22:53:26;-1.20;99.90
17968;DHT22;9109;48.050;11.696;2023-02-26T22:56:28;-1.20;99.90
17968;DHT22;9109;48.050;11.696;2023-02-26T22:59:30;-1.10;99.90
17968;DHT22;9109;48.050;11.696;2023-02-26T23:02:32;-1.40;99.90
17968;DHT22;9109;48.050;11.696;2023-02-26T23:05:34;-1.40;99.90
17968;DHT22;9109;48.050;11.696;2023-02-26T23:08:37;-1.30;99.90
17968;DHT22;9109;48.050;11.696;2023-02-26T23:11:39;-1.10;99.90
17968;DHT22;9109;48.050;11.696;2023-02-26T23:14:41;-1.00;99.90
17968;DHT22;9109;48.050;11.696;2023-02-26T23:17:43;-1.00;99.90
17968;DHT22;9109;48.050;11.696;2023-02-26T23:20:46;-1.10;99.90
17968;DHT22;9109;48.050;11.696;2023-02-26T23:23:49;-1.10;99.90
17968;DHT22;9109;48.050;11.696;2023-02-26T23:26:51;-1.10;99.90
17968;DHT22;9109;48.050;11.696;2023-02-26T23:29:53;-1.00;99.90
17968;DHT22;9109;48.050;11.696;2023-02-26T23:32:57;-1.00;99.90
17968;DHT22;9109;48.050;11.696;2023-02-26T23:35:59;-1.00;99.90
17968;DHT22;9109;48.050;11.696;2023-02-26T23:39:03;-0.90;99.90
17968;DHT22;9109;48.050;11.696;2023-02-26T23:42:05;-0.90;99.90
17968;DHT22;9109;48.050;11.696;2023-02-26T23:45:11;-1.00;99.90
17968;DHT22;9109;48.050;11.696;2023-02-26T23:48:16;-1.00;99.90
17968;DHT22;9109;48.050;11.696;2023-02-26T23:51:18;-1.10;99.90
17968;DHT22;9109;48.050;11.696;2023-02-26T23:54:22;-1.00;99.90
17968;DHT22;9109;48.050;11.696;2023-02-26T23:57:24;-1.00;99.90
